createdAt,value
2023-05-11T00:01:09.592Z,1.80
2023-05-11T00:03:38.460Z,1.60
2023-05-11T00:06:07.086Z,1.60
2023-05-11T00:08:37.242Z,1.70
2023-05-11T00:11:09.245Z,1.87
2023-05-11T00:13:38.003Z,1.60
2023-05-11T00:16:06.710Z,1.53
2023-05-11T00:18:35.105Z,1.70
2023-05-11T00:21:03.452Z,1.30
2023-05-11T00:23:31.866Z,1.17
2023-05-11T00:26:01.686Z,1.43
2023-05-11T00:28:30.077Z,1.10
2023-05-11T00:30:58.925Z,1.67
2023-05-11T00:33:27.358Z,1.60
2023-05-11T00:35:55.685Z,1.87
2023-05-11T00:38:24.111Z,1.40
2023-05-11T00:40:52.464Z,1.63
2023-05-11T00:43:22.314Z,1.67
2023-05-11T00:45:52.357Z,1.20
2023-05-11T00:48:20.745Z,2.13
2023-05-11T00:50:49.410Z,1.40
2023-05-11T00:53:17.955Z,1.23
2023-05-11T00:55:46.590Z,1.87
2023-05-11T00:58:18.277Z,1.50
2023-05-11T01:00:48.618Z,2.30
2023-05-11T01:03:17.696Z,1.47
2023-05-11T01:05:53.896Z,1.43
2023-05-11T01:08:33.401Z,1.63
2023-05-11T01:11:09.376Z,1.40
2023-05-11T01:13:43.241Z,1.77
2023-05-11T01:16:19.024Z,1.30
2023-05-11T01:18:54.078Z,1.37
2023-05-11T01:21:22.812Z,1.83
2023-05-11T01:24:13.385Z,1.37
2023-05-11T01:27:07.954Z,1.73
2023-05-11T01:30:06.541Z,2.30
2023-05-11T01:32:41.800Z,1.77
2023-05-11T01:35:18.994Z,1.63
2023-05-11T01:37:52.539Z,1.57
2023-05-11T01:40:25.395Z,1.90
2023-05-11T01:43:00.151Z,2.67
2023-05-11T01:45:30.021Z,1.77
2023-05-11T01:48:04.018Z,2.90
2023-05-11T01:50:34.202Z,1.90
2023-05-11T01:53:05.299Z,1.90
2023-05-11T01:55:36.271Z,1.70
2023-05-11T01:58:06.736Z,1.47
2023-05-11T02:00:36.021Z,2.00
2023-05-11T02:03:08.268Z,2.00
2023-05-11T02:05:37.846Z,1.70
2023-05-11T02:08:07.918Z,1.70
2023-05-11T02:10:38.061Z,1.60
2023-05-11T02:13:07.540Z,1.90
2023-05-11T02:15:38.947Z,2.63
2023-05-11T02:18:13.703Z,2.90
2023-05-11T02:20:45.778Z,2.53
2023-05-11T02:23:15.276Z,2.00
2023-05-11T02:25:44.930Z,2.47
2023-05-11T02:28:13.620Z,2.13
2023-05-11T02:30:48.232Z,1.70
2023-05-11T02:33:22.714Z,2.00
2023-05-11T02:35:55.217Z,2.10
2023-05-11T02:38:33.357Z,2.00
2023-05-11T02:41:07.218Z,2.90
2023-05-11T02:43:40.756Z,2.03
2023-05-11T02:46:14.580Z,2.67
2023-05-11T02:48:50.603Z,2.23
2023-05-11T02:51:22.040Z,2.43
2023-05-11T02:53:56.207Z,2.17
2023-05-11T02:56:26.180Z,1.57
2023-05-11T02:58:56.515Z,1.70
2023-05-11T03:01:30.346Z,2.00
2023-05-11T03:04:00.851Z,2.17
2023-05-11T03:06:31.584Z,2.80
2023-05-11T03:09:00.227Z,2.30
2023-05-11T03:11:29.562Z,2.50
2023-05-11T03:13:58.667Z,2.37
2023-05-11T03:16:27.919Z,1.70
2023-05-11T03:18:57.494Z,2.57
2023-05-11T03:21:28.654Z,2.93
2023-05-11T03:23:59.010Z,1.97
2023-05-11T03:26:31.130Z,2.30
2023-05-11T03:29:01.231Z,3.83
2023-05-11T03:31:29.709Z,2.00
2023-05-11T03:34:00.485Z,1.97
2023-05-11T03:36:33.773Z,2.13
2023-05-11T03:39:04.265Z,1.70
2023-05-11T03:41:35.688Z,1.83
2023-05-11T03:44:07.507Z,2.07
2023-05-11T03:46:40.568Z,1.53
2023-05-11T03:49:13.528Z,2.27
2023-05-11T03:51:44.020Z,2.53
2023-05-11T03:54:13.614Z,2.50
2023-05-11T03:56:42.181Z,1.73
2023-05-11T03:59:15.129Z,1.83
2023-05-11T04:01:44.395Z,2.77
2023-05-11T04:04:12.724Z,3.50
2023-05-11T04:06:41.327Z,2.00
2023-05-11T04:09:20.737Z,1.83
2023-05-11T04:11:49.086Z,2.90
2023-05-11T04:14:18.277Z,2.50
2023-05-11T04:16:47.121Z,1.80
2023-05-11T04:19:16.417Z,2.73
2023-05-11T04:21:44.827Z,1.77
2023-05-11T04:24:13.208Z,2.37
2023-05-11T04:26:43.185Z,1.83
2023-05-11T04:29:11.569Z,2.63
2023-05-11T04:31:40.138Z,2.20
2023-05-11T04:34:09.298Z,6.17
2023-05-11T04:36:39.185Z,3.33
2023-05-11T04:39:08.059Z,1.90
2023-05-11T04:41:40.381Z,1.70
2023-05-11T04:44:11.880Z,3.97
2023-05-11T04:46:40.478Z,1.97
2023-05-11T04:49:09.368Z,3.27
2023-05-11T04:51:40.641Z,3.10
2023-05-11T04:54:10.872Z,2.97
2023-05-11T04:56:40.928Z,2.40
2023-05-11T04:59:11.800Z,2.70
2023-05-11T05:01:40.268Z,2.20
2023-05-11T05:04:08.886Z,1.77
2023-05-11T05:06:38.458Z,3.20
2023-05-11T05:09:07.066Z,4.07
2023-05-11T05:11:36.205Z,2.43
2023-05-11T05:14:04.640Z,2.43
2023-05-11T05:16:34.729Z,3.17
2023-05-11T05:19:03.834Z,2.23
2023-05-11T05:21:34.452Z,3.07
2023-05-11T05:24:03.398Z,3.10
2023-05-11T05:26:32.226Z,2.90
2023-05-11T05:29:01.455Z,2.40
2023-05-11T05:31:31.114Z,2.23
2023-05-11T05:34:01.164Z,3.90
2023-05-11T05:36:29.667Z,2.80
2023-05-11T05:38:58.032Z,2.23
2023-05-11T05:41:27.079Z,2.00
2023-05-11T05:43:56.285Z,2.03
2023-05-11T05:46:24.650Z,2.87
2023-05-11T05:48:53.260Z,4.40
2023-05-11T05:51:23.428Z,2.40
2023-05-11T05:53:51.957Z,2.43
2023-05-11T05:56:21.835Z,3.17
2023-05-11T05:58:50.464Z,3.80
2023-05-11T06:01:18.972Z,3.13
2023-05-11T06:03:47.702Z,2.13
2023-05-11T06:06:16.431Z,2.50
2023-05-11T06:08:46.053Z,2.77
2023-05-11T06:11:14.431Z,2.47
2023-05-11T06:13:43.029Z,1.80
2023-05-11T06:16:11.888Z,2.80
2023-05-11T06:18:40.304Z,2.23
2023-05-11T06:21:09.433Z,2.70
2023-05-11T06:23:38.022Z,3.43
2023-05-11T06:26:07.885Z,2.27
2023-05-11T06:28:36.409Z,1.90
2023-05-11T06:31:08.266Z,2.23
2023-05-11T06:33:38.939Z,1.50
2023-05-11T06:36:12.696Z,2.30
2023-05-11T06:38:41.190Z,2.17
2023-05-11T06:41:11.695Z,3.63
2023-05-11T06:43:40.191Z,3.37
2023-05-11T06:46:20.219Z,3.20
2023-05-11T06:48:48.710Z,5.50
2023-05-11T06:51:17.256Z,2.40
2023-05-11T06:53:45.917Z,2.50
2023-05-11T06:56:15.798Z,3.30
2023-05-11T06:58:44.351Z,3.20
2023-05-11T07:01:13.007Z,5.43
2023-05-11T07:03:41.609Z,2.63
2023-05-11T07:06:10.102Z,3.37
2023-05-11T07:08:38.625Z,3.33
2023-05-11T07:11:07.420Z,2.43
2023-05-11T07:13:37.121Z,2.73
2023-05-11T07:16:05.616Z,2.43
2023-05-11T07:18:34.299Z,2.83
2023-05-11T07:21:02.813Z,4.13
2023-05-11T07:23:31.144Z,2.57
2023-05-11T07:25:59.742Z,4.50
2023-05-11T07:28:28.462Z,2.93
2023-05-11T07:30:58.425Z,2.53
2023-05-11T07:33:26.972Z,2.60
2023-05-11T07:35:55.769Z,2.80
2023-05-11T07:38:24.325Z,2.40
2023-05-11T07:40:52.880Z,3.17
2023-05-11T07:43:21.463Z,2.47
2023-05-11T07:45:49.961Z,3.47
2023-05-11T07:48:19.689Z,3.03
2023-05-11T07:50:49.607Z,3.77
2023-05-11T07:53:18.312Z,5.13
2023-05-11T07:55:46.760Z,3.20
2023-05-11T07:58:15.480Z,4.57
2023-05-11T08:00:44.012Z,3.50
2023-05-11T08:03:13.212Z,2.83
2023-05-11T08:05:43.342Z,9.07
2023-05-11T08:08:11.829Z,7.83
2023-05-11T08:10:40.296Z,7.70
2023-05-11T08:13:09.003Z,7.17
2023-05-11T08:15:37.637Z,8.43
2023-05-11T08:18:06.848Z,8.27
2023-05-11T08:20:35.497Z,8.20
2023-05-11T08:23:07.622Z,8.73
2023-05-11T08:25:36.139Z,7.00
2023-05-11T08:28:04.982Z,5.20
2023-05-11T08:30:33.479Z,7.00
2023-05-11T08:35:33.190Z,5.33
2023-05-11T08:38:01.743Z,5.50
2023-05-11T08:40:32.715Z,5.23
2023-05-11T08:43:05.554Z,4.47
2023-05-11T08:45:37.628Z,6.93
2023-05-11T08:48:07.695Z,4.43
2023-05-11T08:50:36.318Z,6.10
2023-05-11T08:53:05.033Z,4.00
2023-05-11T08:55:35.210Z,7.10
2023-05-11T08:58:07.290Z,4.60
2023-05-11T09:00:36.055Z,4.90
2023-05-11T09:03:06.768Z,6.90
2023-05-11T09:05:36.736Z,5.23
2023-05-11T09:08:07.204Z,5.07
2023-05-11T09:10:37.880Z,6.20
2023-05-11T09:13:06.645Z,5.67
2023-05-11T09:15:38.183Z,6.40
2023-05-11T09:18:07.105Z,5.50
2023-05-11T09:20:36.401Z,5.80
2023-05-11T09:23:04.863Z,4.27
2023-05-11T09:25:35.252Z,4.20
2023-05-11T09:28:05.247Z,7.60
2023-05-11T09:30:35.671Z,3.93
2023-05-11T09:33:04.164Z,3.73
2023-05-11T09:35:33.876Z,5.17
2023-05-11T09:38:05.122Z,4.37
2023-05-11T09:40:35.259Z,5.57
2023-05-11T09:43:16.456Z,6.40
2023-05-11T09:45:46.453Z,7.03
2023-05-11T09:48:31.785Z,3.70
2023-05-11T09:51:03.639Z,3.90
2023-05-11T09:53:40.989Z,4.00
2023-05-11T09:56:10.065Z,3.37
2023-05-11T09:58:57.557Z,5.70
2023-05-11T10:01:34.167Z,6.07
2023-05-11T10:04:17.798Z,4.07
2023-05-11T10:06:53.090Z,6.20
2023-05-11T10:09:26.004Z,7.53
2023-05-11T10:11:56.553Z,5.73
2023-05-11T10:14:29.349Z,4.80
2023-05-11T10:16:59.516Z,4.80
2023-05-11T10:19:28.624Z,5.77
2023-05-11T10:21:58.462Z,3.63
2023-05-11T10:24:27.436Z,5.80
2023-05-11T10:26:58.919Z,6.13
2023-05-11T10:29:30.117Z,6.97
2023-05-11T10:32:00.076Z,5.77
2023-05-11T10:34:30.111Z,5.67
2023-05-11T10:37:02.649Z,7.50
2023-05-11T10:39:31.653Z,4.00
2023-05-11T10:42:21.412Z,5.07
2023-05-11T10:45:07.064Z,3.47
2023-05-11T10:48:13.087Z,5.93
2023-05-11T10:50:57.432Z,4.47
2023-05-11T10:53:48.037Z,4.30
2023-05-11T10:56:39.808Z,4.33
2023-05-11T10:59:24.047Z,7.10
2023-05-11T11:01:59.100Z,4.70
2023-05-11T11:04:42.385Z,5.03
2023-05-11T11:07:11.567Z,5.03
2023-05-11T11:09:54.380Z,5.03
2023-05-11T11:12:23.901Z,6.73
2023-05-11T11:14:57.571Z,5.40
2023-05-11T11:17:32.118Z,8.13
2023-05-11T11:20:02.203Z,5.00
2023-05-11T11:22:47.964Z,5.17
2023-05-11T11:25:37.455Z,4.77
2023-05-11T11:28:06.099Z,6.10
2023-05-11T11:30:34.549Z,4.67
2023-05-11T11:33:34.636Z,4.73
2023-05-11T11:36:03.229Z,5.53
2023-05-11T11:38:33.932Z,5.07
2023-05-11T11:41:02.938Z,3.93
2023-05-11T11:43:45.814Z,4.17
2023-05-11T11:46:28.203Z,7.17
2023-05-11T11:49:10.185Z,4.83
2023-05-11T11:51:40.536Z,4.33
2023-05-11T11:54:09.688Z,6.33
2023-05-11T11:56:46.046Z,5.67
2023-05-11T11:59:16.276Z,8.60
2023-05-11T12:01:46.704Z,4.70
2023-05-11T12:04:59.331Z,4.47
2023-05-11T12:07:33.934Z,5.73
2023-05-11T12:10:04.989Z,6.23
2023-05-11T12:12:34.552Z,5.93
2023-05-11T12:15:04.118Z,5.63
2023-05-11T12:17:34.566Z,7.03
2023-05-11T12:20:15.620Z,5.33
2023-05-11T12:22:46.880Z,6.40
2023-05-11T12:25:17.588Z,8.13
2023-05-11T12:27:51.216Z,5.20
2023-05-11T12:30:24.532Z,5.50
2023-05-11T12:32:57.465Z,4.27
2023-05-11T12:35:29.184Z,4.30
2023-05-11T12:37:58.820Z,5.23
2023-05-11T12:40:27.315Z,4.93
2023-05-11T12:42:57.382Z,4.60
2023-05-11T12:45:27.064Z,4.87
2023-05-11T12:47:58.597Z,6.53
2023-05-11T12:50:28.660Z,10.23
2023-05-11T12:53:14.148Z,8.60
2023-05-11T12:55:43.513Z,5.90
2023-05-11T12:58:14.238Z,6.40
2023-05-11T13:00:54.483Z,5.17
2023-05-11T13:03:23.950Z,5.63
2023-05-11T13:05:54.435Z,4.70
2023-05-11T13:08:23.073Z,8.10
2023-05-11T13:10:51.589Z,6.03
2023-05-11T13:13:29.530Z,4.53
2023-05-11T13:15:58.117Z,5.97
2023-05-11T13:18:26.450Z,6.10
2023-05-11T13:21:07.903Z,4.57
2023-05-11T13:23:36.961Z,6.80
2023-05-11T13:26:05.611Z,10.70
2023-05-11T13:28:35.442Z,6.60
2023-05-11T13:31:04.061Z,5.30
2023-05-11T13:33:32.614Z,7.10
2023-05-11T13:36:01.326Z,6.70
2023-05-11T13:38:31.144Z,5.90
2023-05-11T13:40:59.706Z,7.37
2023-05-11T13:43:28.124Z,6.27
2023-05-11T13:45:56.926Z,5.47
2023-05-11T13:48:25.391Z,8.07
2023-05-11T13:50:53.837Z,5.47
2023-05-11T13:53:22.384Z,5.47
2023-05-11T13:55:52.384Z,6.87
2023-05-11T13:58:20.807Z,6.43
2023-05-11T14:01:06.523Z,6.57
2023-05-11T14:03:36.715Z,5.63
2023-05-11T14:06:05.593Z,5.23
2023-05-11T14:08:34.064Z,6.10
2023-05-11T14:11:04.013Z,6.03
2023-05-11T14:13:32.573Z,7.27
2023-05-11T14:16:01.670Z,5.53
2023-05-11T14:18:30.494Z,6.87
2023-05-11T14:20:58.944Z,6.13
2023-05-11T14:23:27.630Z,6.20
2023-05-11T14:25:56.994Z,5.93
2023-05-11T14:28:28.138Z,5.57
2023-05-11T14:30:56.993Z,6.93
2023-05-11T14:33:25.716Z,7.80
2023-05-11T14:35:54.472Z,7.20
2023-05-11T14:38:22.834Z,5.80
2023-05-11T14:40:52.527Z,7.00
2023-05-11T14:43:22.182Z,6.07
2023-05-11T14:45:52.016Z,5.57
2023-05-11T14:48:20.565Z,5.07
2023-05-11T14:50:49.149Z,6.63
2023-05-11T14:53:17.851Z,5.23
2023-05-11T14:55:46.643Z,6.07
2023-05-11T14:58:16.379Z,5.77
2023-05-11T15:00:44.853Z,5.73
2023-05-11T15:03:14.882Z,8.30
2023-05-11T15:05:43.503Z,5.90
2023-05-11T15:08:25.714Z,6.40
2023-05-11T15:10:57.324Z,5.90
2023-05-11T15:13:25.986Z,6.30
2023-05-11T15:15:54.454Z,6.27
2023-05-11T15:18:24.540Z,6.87
2023-05-11T15:20:53.087Z,6.03
2023-05-11T15:23:21.653Z,6.47
2023-05-11T15:25:50.282Z,7.83
2023-05-11T15:28:18.717Z,5.97
2023-05-11T15:30:48.978Z,6.53
2023-05-11T15:33:20.042Z,5.40
2023-05-11T15:35:51.355Z,5.60
2023-05-11T15:38:20.769Z,7.50
2023-05-11T15:40:49.337Z,7.27
2023-05-11T15:43:17.879Z,5.20
2023-05-11T15:45:46.444Z,5.63
2023-05-11T15:48:15.212Z,5.60
2023-05-11T15:50:43.924Z,4.97
2023-05-11T15:53:14.686Z,5.77
2023-05-11T15:55:45.841Z,6.00
2023-05-11T15:58:14.289Z,5.67
2023-05-11T16:00:42.881Z,4.90
2023-05-11T16:03:11.584Z,5.07
2023-05-11T16:05:40.484Z,5.57
2023-05-11T16:08:09.055Z,5.57
2023-05-11T16:10:39.033Z,4.93
2023-05-11T16:13:07.565Z,5.00
2023-05-11T16:15:36.246Z,5.57
2023-05-11T16:18:05.496Z,6.17
2023-05-11T16:20:34.309Z,5.37
2023-05-11T16:23:03.174Z,5.60
2023-05-11T16:25:31.718Z,5.70
2023-05-11T16:28:01.677Z,4.27
2023-05-11T16:30:30.301Z,4.93
2023-05-11T16:32:59.222Z,6.77
2023-05-11T16:35:28.298Z,5.63
2023-05-11T16:37:57.088Z,4.43
2023-05-11T16:40:25.506Z,4.93
2023-05-11T16:42:54.457Z,5.17
2023-05-11T16:45:24.257Z,5.47
2023-05-11T16:47:52.842Z,6.40
2023-05-11T16:50:21.856Z,6.20
2023-05-11T16:52:50.706Z,5.00
2023-05-11T16:55:20.035Z,5.00
2023-05-11T16:57:48.526Z,4.60
2023-05-11T17:00:17.835Z,5.40
2023-05-11T17:02:48.160Z,4.70
2023-05-11T17:05:18.121Z,4.53
2023-05-11T17:07:46.819Z,5.17
2023-05-11T17:10:15.455Z,5.50
2023-05-11T17:12:43.860Z,4.83
2023-05-11T17:15:12.755Z,5.30
2023-05-11T17:17:41.310Z,4.60
2023-05-11T17:20:12.498Z,5.53
2023-05-11T17:22:40.901Z,4.50
2023-05-11T17:25:10.030Z,5.27
2023-05-11T17:27:38.468Z,5.47
2023-05-11T17:30:08.696Z,6.57
2023-05-11T17:32:37.987Z,5.67
2023-05-11T17:35:08.029Z,5.60
2023-05-11T17:37:38.044Z,5.17
2023-05-11T17:40:07.921Z,5.30
2023-05-11T17:42:36.461Z,4.50
2023-05-11T17:45:05.526Z,9.97
2023-05-11T17:47:34.128Z,5.83
2023-05-11T17:50:02.642Z,10.60
2023-05-11T17:52:31.292Z,8.23
2023-05-11T17:55:02.425Z,9.43
2023-05-11T17:57:30.780Z,7.50
2023-05-11T17:59:59.208Z,6.47
2023-05-11T18:02:27.639Z,7.00
2023-05-11T18:04:56.135Z,8.00
2023-05-11T18:07:24.508Z,6.20
2023-05-11T18:09:52.805Z,6.23
2023-05-11T18:12:23.042Z,6.30
2023-05-11T18:14:51.366Z,7.53
2023-05-11T18:17:19.645Z,6.13
2023-05-11T18:19:48.077Z,5.50
2023-05-11T18:22:16.486Z,5.87
2023-05-11T18:24:44.974Z,5.37
2023-05-11T18:27:13.484Z,7.10
2023-05-11T18:29:43.454Z,8.20
2023-05-11T18:32:11.926Z,6.13
2023-05-11T18:34:41.373Z,5.93
2023-05-11T18:37:10.342Z,6.57
2023-05-11T18:39:38.654Z,6.10
2023-05-11T18:42:08.280Z,5.60
2023-05-11T18:44:36.690Z,4.67
2023-05-11T18:47:07.085Z,5.63
2023-05-11T18:49:35.648Z,6.00
2023-05-11T18:52:04.587Z,7.43
2023-05-11T18:54:33.797Z,6.93
2023-05-11T18:57:02.733Z,5.50
2023-05-11T18:59:31.074Z,4.90
2023-05-11T19:01:59.668Z,5.00
2023-05-11T19:04:30.469Z,5.47
2023-05-11T19:06:58.970Z,5.57
2023-05-11T19:09:28.155Z,7.57
2023-05-11T19:11:56.854Z,5.63
2023-05-11T19:14:25.290Z,5.77
2023-05-11T19:16:53.615Z,6.57
2023-05-11T19:19:22.181Z,7.43
2023-05-11T19:21:52.669Z,5.60
2023-05-11T19:24:21.008Z,6.67
2023-05-11T19:27:02.608Z,7.37
2023-05-11T19:29:35.029Z,4.97
2023-05-11T19:32:03.749Z,5.10
2023-05-11T19:34:32.167Z,5.33
2023-05-11T19:37:02.183Z,6.53
2023-05-11T19:39:30.555Z,5.30
2023-05-11T19:41:58.886Z,6.00
2023-05-11T19:44:27.310Z,6.23
2023-05-11T19:46:55.704Z,4.67
2023-05-11T19:49:24.039Z,6.40
2023-05-11T19:51:52.368Z,6.30
2023-05-11T19:54:22.335Z,5.63
2023-05-11T19:56:50.646Z,4.40
2023-05-11T19:59:19.485Z,5.87
2023-05-11T20:01:47.939Z,6.13
2023-05-11T20:04:16.697Z,6.47
2023-05-11T20:06:45.121Z,6.17
2023-05-11T20:09:13.652Z,6.00
2023-05-11T20:11:43.313Z,5.73
2023-05-11T20:14:11.706Z,4.90
2023-05-11T20:16:40.228Z,5.53
2023-05-11T20:19:09.530Z,6.90
2023-05-11T20:21:38.052Z,7.20
2023-05-11T20:24:06.540Z,5.37
2023-05-11T20:26:36.747Z,5.33
2023-05-11T20:29:07.825Z,5.43
2023-05-11T20:31:36.422Z,4.33
2023-05-11T20:34:07.673Z,5.10
2023-05-11T20:36:36.029Z,5.30
2023-05-11T20:39:05.709Z,5.27
2023-05-11T20:41:34.660Z,5.23
2023-05-11T20:44:03.593Z,5.30
2023-05-11T20:46:33.280Z,5.70
2023-05-11T20:49:01.610Z,7.50
2023-05-11T20:51:29.867Z,6.37
2023-05-11T20:53:58.258Z,6.47
2023-05-11T20:56:26.682Z,4.90
2023-05-11T20:58:55.236Z,4.70
2023-05-11T21:01:23.706Z,4.73
2023-05-11T21:03:53.520Z,5.33
2023-05-11T21:06:21.848Z,5.50
2023-05-11T21:08:51.016Z,4.67
2023-05-11T21:11:19.399Z,5.97
2023-05-11T21:13:48.725Z,5.13
2023-05-11T21:16:17.059Z,5.23
2023-05-11T21:18:45.387Z,4.90
2023-05-11T21:21:15.110Z,5.73
2023-05-11T21:23:43.455Z,5.23
2023-05-11T21:26:11.795Z,6.30
2023-05-11T21:28:40.706Z,7.03
2023-05-11T21:31:09.522Z,6.37
2023-05-11T21:33:38.352Z,6.30
2023-05-11T21:36:08.205Z,7.20
2023-05-11T21:38:37.963Z,6.30
2023-05-11T21:41:07.450Z,7.30
2023-05-11T21:43:35.821Z,5.07
2023-05-11T21:46:04.329Z,6.23
2023-05-11T21:48:32.576Z,5.83
2023-05-11T21:51:00.899Z,6.83
2023-05-11T21:53:29.193Z,6.43
2023-05-11T21:55:58.960Z,5.70
2023-05-11T21:58:27.553Z,6.77
2023-05-11T22:00:57.010Z,4.97
2023-05-11T22:03:25.553Z,4.90
2023-05-11T22:05:53.991Z,5.40
2023-05-11T22:08:22.422Z,5.07
2023-05-11T22:10:50.708Z,5.70
2023-05-11T22:13:20.602Z,6.40
2023-05-11T22:15:48.951Z,5.13
2023-05-11T22:18:17.280Z,6.23
2023-05-11T22:20:45.596Z,5.80
2023-05-11T22:23:15.724Z,5.43
2023-05-11T22:25:44.360Z,5.80
2023-05-11T22:28:12.775Z,4.80
2023-05-11T22:30:42.464Z,5.50
2023-05-11T22:33:10.787Z,5.40
2023-05-11T22:35:39.879Z,6.17
2023-05-11T22:38:08.890Z,6.20
2023-05-11T22:40:37.378Z,6.73
2023-05-11T22:43:05.708Z,6.30
2023-05-11T22:45:34.101Z,6.93
2023-05-11T22:48:04.393Z,5.07
2023-05-11T22:50:32.829Z,5.17
2023-05-11T22:53:01.291Z,5.30
2023-05-11T22:55:29.664Z,4.43
2023-05-11T22:57:57.956Z,4.83
2023-05-11T23:00:27.373Z,5.70
2023-05-11T23:02:55.783Z,3.97
2023-05-11T23:05:25.920Z,6.10
2023-05-11T23:07:55.894Z,5.43
2023-05-11T23:10:24.753Z,5.63
2023-05-11T23:12:53.067Z,5.50
2023-05-11T23:15:21.401Z,5.30
2023-05-11T23:17:49.904Z,6.10
2023-05-11T23:20:18.785Z,5.97
2023-05-11T23:22:48.768Z,4.10
2023-05-11T23:25:17.392Z,5.93
2023-05-11T23:27:45.703Z,5.27
2023-05-11T23:30:14.487Z,5.67
2023-05-11T23:32:42.819Z,5.03
2023-05-11T23:35:11.961Z,5.90
2023-05-11T23:37:40.352Z,5.40
2023-05-11T23:40:10.908Z,4.43
2023-05-11T23:42:39.356Z,5.33
2023-05-11T23:45:08.884Z,5.30
2023-05-11T23:47:37.621Z,5.67
2023-05-11T23:50:07.433Z,5.97
2023-05-11T23:52:35.813Z,5.80
2023-05-11T23:55:04.947Z,5.87
2023-05-11T23:57:34.726Z,4.80
